createdAt,value
2022-08-03T00:07:54.067Z,85
2022-08-03T00:17:54.237Z,85
2022-08-03T00:27:54.992Z,86
2022-08-03T00:37:55.298Z,86
2022-08-03T00:47:56.253Z,87
2022-08-03T01:07:56.708Z,87
2022-08-03T01:27:57.919Z,88
2022-08-03T01:37:58.509Z,88
2022-08-03T02:28:01.920Z,89
2022-08-03T02:48:03.434Z,90
2022-08-03T02:58:03.883Z,90
2022-08-03T03:28:06.215Z,91
2022-08-03T03:48:06.295Z,92
2022-08-03T03:58:06.494Z,92
2022-08-03T04:08:07.029Z,92
2022-08-03T04:18:07.912Z,93
2022-08-03T04:28:30.236Z,93
2022-08-03T04:48:08.892Z,93
2022-08-03T04:58:09.706Z,92
2022-08-03T05:08:11.128Z,91
2022-08-03T05:18:13.822Z,90
2022-08-03T05:28:11.050Z,89
2022-08-03T05:48:12.781Z,86
2022-08-03T05:58:13.741Z,85
2022-08-03T06:18:15.087Z,81
2022-08-03T06:28:35.627Z,80
2022-08-03T06:38:15.892Z,80
2022-08-03T06:48:16.010Z,79
2022-08-03T06:58:16.492Z,78
2022-08-03T07:18:17.486Z,75
2022-08-03T07:28:18.099Z,75
2022-08-03T09:08:22.371Z,63
2022-08-03T09:48:25.619Z,57
2022-08-03T09:58:26.276Z,57
2022-08-03T10:18:27.190Z,56
2022-08-03T10:38:28.375Z,56
2022-08-03T10:48:28.883Z,55
2022-08-03T10:58:30.699Z,52
2022-08-03T11:08:30.017Z,51
2022-08-03T11:18:31.037Z,51
2022-08-03T11:28:31.616Z,50
2022-08-03T11:48:32.522Z,50
2022-08-03T11:59:00.375Z,51
2022-08-03T12:08:34.334Z,50
2022-08-03T12:18:34.904Z,48
2022-08-03T12:28:36.634Z,48
2022-08-03T12:38:36.353Z,48
2022-08-03T12:58:38.101Z,47
2022-08-03T13:08:38.482Z,46
2022-08-03T13:18:39.482Z,46
2022-08-03T13:48:40.670Z,46
2022-08-03T13:58:41.673Z,47
2022-08-03T14:08:42.480Z,47
2022-08-03T14:38:44.877Z,46
2022-08-03T14:50:28.009Z,46
2022-08-03T14:58:45.879Z,45
2022-08-03T15:09:00.474Z,45
2022-08-03T15:18:47.208Z,45
2022-08-03T15:28:47.394Z,44
2022-08-03T15:38:48.305Z,42
2022-08-03T15:48:49.037Z,43
2022-08-03T15:58:58.858Z,43
2022-08-03T16:08:50.150Z,43
2022-08-03T16:18:51.090Z,43
2022-08-03T16:28:51.638Z,43
2022-08-03T16:38:52.070Z,44
2022-08-03T16:48:52.877Z,45
2022-08-03T16:58:53.069Z,45
2022-08-03T17:08:55.338Z,44
2022-08-03T17:18:54.325Z,44
2022-08-03T17:28:57.210Z,46
2022-08-03T17:58:55.813Z,47
2022-08-03T18:08:56.170Z,47
2022-08-03T18:38:57.296Z,52
2022-08-03T18:59:00.184Z,55
2022-08-03T19:18:58.849Z,56
2022-08-03T19:28:59.436Z,57
2022-08-03T19:38:59.523Z,58
2022-08-03T19:49:00.393Z,60
2022-08-03T20:19:01.992Z,63
2022-08-03T20:29:06.067Z,64
2022-08-03T20:39:07.564Z,64
2022-08-03T20:49:04.283Z,66
2022-08-03T21:09:04.828Z,67
2022-08-03T21:19:05.457Z,68
2022-08-03T21:29:05.633Z,70
2022-08-03T21:39:06.148Z,70
2022-08-03T21:49:51.624Z,72
2022-08-03T21:59:07.148Z,73
2022-08-03T22:09:07.875Z,73
2022-08-03T22:19:07.968Z,74
2022-08-03T22:29:08.601Z,75
2022-08-03T22:39:09.366Z,75
2022-08-03T22:59:39.519Z,77
2022-08-03T23:19:16.880Z,78
2022-08-03T23:29:11.757Z,78
2022-08-03T23:49:13.394Z,79
2022-08-03T23:59:14.025Z,79
